• Join FlightAware (Why Join?)
  • Login
  • US Flag 
03:56PM EDT


 

Airport Tracker/Info


-or-


 

Live Flight TrackerFlight Track Log ✈ AWE3397 ✈ 08-May-2013 ✈ KPHL - KMSY

Flight Track Log - Related Links

Times and Time Zones

All times are in EDT time to prevent confusion due to time zone crossing. See the AWE3397 flight status page for this flight to view local times or setup timezone preferences in your user account.

Time Position Orientation Groundspeed Altitude Reporting Facility
EDT Latitude Longitude Course Direction KTS MPH feet Rate Location/Type
08:34AM 39.8833 -75.2167 258° West 162 186 700  Level Philadelphia TRACON
08:35AM 39.9000 -75.1500 72° East 196 226 2,500 1,560 Climbing Philadelphia TRACON
08:36AM 39.8333 -75.6001 270° West  Level FlightAware Approximate
08:36AM 39.9667 -75.1500 360° North 295 339 4,200  Level Philadelphia TRACON
08:37AM 39.8334 -75.7280 270° West  Level FlightAware Approximate
08:38AM 39.8215 -75.8543 258° West  Level FlightAware Approximate
08:38AM 39.9703 -75.3539 271° West 293 337 10,000  Level New York Center
08:39AM 39.8007 -75.9793 258° West  Level FlightAware Approximate
08:39AM 39.9556 -75.4639 260° West 303 349 11,100  Level New York Center
08:40AM 39.9567 -75.5939 271° West 335 386 13,100 2,100 Climbing New York Center
08:41AM 39.9572 -75.7267 270° West 366 421 15,400 1,980 Climbing New York Center
08:42AM 39.9186 -75.8511 248° West 374 430 17,100 1,740 Climbing New York Center
08:43AM 39.8783 -75.9619 245° Southwest 380 437 19,000 1,740 Climbing New York Center
08:44AM 39.8331 -76.0911 245° Southwest 387 445 20,700 1,560 Climbing New York Center
08:45AM 39.7792 -76.2219 242° Southwest 399 459 22,100 1,440 Climbing New York Center
08:46AM 39.7247 -76.3556 242° Southwest 413 475 23,600 1,320 Climbing New York Center
08:48AM 39.6414 -76.4997 233° Southwest 417 480 25,100 1,260 Climbing Washington Center
08:49AM 39.5633 -76.6172 229° Southwest 424 488 26,500 1,200 Climbing Washington Center
08:50AM 39.4853 -76.7344 229° Southwest 435 501 27,500 900 Climbing Washington Center
08:51AM 39.4069 -76.8567 230° Southwest 440 506 28,300 840 Climbing Washington Center
08:52AM 39.3286 -76.9814 231° Southwest 446 513 29,300 1,080 Climbing Washington Center
08:53AM 39.2478 -77.1031 229° Southwest 451 519 30,500 1,140 Climbing Washington Center
08:54AM 39.1692 -77.2247 230° Southwest 451 519 31,600 1,740 Climbing Washington Center
08:55AM 39.0839 -77.3483 228° Southwest 451 519 34,000 1,200 Climbing Washington Center
08:56AM 39.0072 -77.4722 231° Southwest 434 499 34,000  Level Washington Center
08:57AM 38.9386 -77.5772 230° Southwest 445 512 34,000  Level Washington Center
08:58AM 38.8511 -77.7081 229° Southwest 451 519 34,000  Level Washington Center
08:59AM 38.7675 -77.8336 230° Southwest 451 519 34,000  Level Washington Center
09:00AM 38.6858 -77.9561 230° Southwest 459 528 34,000  Level Washington Center
09:01AM 38.6083 -78.0731 230° Southwest 454 522 34,000  Level Washington Center
09:02AM 38.5244 -78.1978 229° Southwest 454 522 34,000  Level Washington Center
09:03AM 38.4447 -78.3169 230° Southwest 459 528 34,000  Level Washington Center
09:04AM 38.3628 -78.4356 229° Southwest 453 521 34,000  Level Washington Center
09:05AM 38.2828 -78.5542 229° Southwest 453 521 34,000  Level Washington Center
09:06AM 38.2111 -78.6650 231° Southwest 453 521 34,000  Level Washington Center
09:07AM 38.1267 -78.7831 228° Southwest 453 521 34,000  Level Washington Center
09:08AM 38.0397 -78.9139 230° Southwest 453 521 34,000  Level Washington Center
09:09AM 37.9592 -79.0289 228° Southwest 448 516 34,000  Level Washington Center
09:10AM 37.8806 -79.1542 232° Southwest 454 522 34,000  Level Washington Center
09:11AM 37.8161 -79.2825 238° Southwest 454 522 34,000  Level Washington Center
09:12AM 37.7581 -79.4031 239° Southwest 449 517 34,000  Level Washington Center
09:13AM 37.6825 -79.5464 236° Southwest 449 517 34,000  Level Washington Center
09:14AM 37.6156 -79.6819 238° Southwest 449 517 34,000  Level Washington Center
09:15AM 37.5483 -79.8144 237° Southwest 454 522 34,000  Level Washington Center
09:16AM 37.4942 -79.9267 239° Southwest 459 528 34,000  Level Washington Center
09:17AM 37.4200 -80.0689 237° Southwest 459 528 34,000  Level Washington Center
09:18AM 37.3375 -80.2228 236° Southwest 465 535 34,000  Level Atlanta Center
09:19AM 37.2708 -80.3564 238° Southwest 480 552 34,000  Level Atlanta Center
09:20AM 37.2017 -80.4900 237° Southwest 470 541 34,000  Level Atlanta Center
09:21AM 37.1306 -80.6208 236° Southwest 470 541 34,000  Level Atlanta Center
09:22AM 37.0756 -80.7428 241° Southwest 470 541 34,000  Level Atlanta Center
09:23AM 37.0228 -80.8853 245° Southwest 460 529 34,000  Level Atlanta Center
09:24AM 36.9722 -81.0278 246° West 446 513 34,100 360 Climbing Atlanta Center
09:25AM 36.9256 -81.1644 247° West 446 513 34,800 720 Climbing Atlanta Center
09:26AM 36.8706 -81.3169 246° West 441 507 35,600 600 Climbing Atlanta Center
09:27AM 36.8169 -81.4458 243° Southwest 436 502 36,000 180 Climbing Atlanta Center
09:28AM 36.7550 -81.5747 239° Southwest 436 502 36,000  Level Atlanta Center
09:29AM 36.6867 -81.7039 237° Southwest 442 509 36,000  Level Atlanta Center
09:30AM 36.6161 -81.8300 235° Southwest 447 514 36,000  Level Atlanta Center
09:31AM 36.5556 -81.9428 236° Southwest 447 514 36,000  Level Atlanta Center
09:32AM 36.4867 -82.0711 236° Southwest 447 514 36,000  Level Atlanta Center
09:33AM 36.4178 -82.1967 236° Southwest 447 514 36,000  Level Atlanta Center
09:34AM 36.3467 -82.3219 235° Southwest 447 514 36,000  Level Atlanta Center
09:35AM 36.2814 -82.4444 237° Southwest 447 514 36,000  Level Atlanta Center
09:36AM 36.2122 -82.5694 236° Southwest 447 514 36,000  Level Atlanta Center
09:37AM 36.1428 -82.6942 235° Southwest 447 514 36,000  Level Atlanta Center
09:38AM 36.0731 -82.8186 235° Southwest 447 514 36,000  Level Atlanta Center
09:39AM 36.0053 -82.9428 236° Southwest 447 514 36,000  Level Atlanta Center
09:40AM 35.9314 -83.0797 236° Southwest 447 514 36,000  Level Atlanta Center
09:41AM 35.8614 -83.2033 235° Southwest 447 514 36,000  Level Atlanta Center
09:42AM 35.8122 -83.3217 243° Southwest 442 509 36,000  Level Atlanta Center
09:43AM 35.7753 -83.4603 252° West 431 496 36,000  Level Atlanta Center
09:44AM 35.7364 -83.5986 251° West 431 496 36,000  Level Atlanta Center
09:45AM 35.6969 -83.7394 251° West 431 496 36,000  Level Atlanta Center
09:46AM 35.6347 -83.8803 242° Southwest 431 496 36,000  Level Atlanta Center
09:47AM 35.5597 -84.0006 233° Southwest 431 496 36,000  Level Atlanta Center
09:48AM 35.4844 -84.1178 232° Southwest 442 509 36,000  Level Atlanta Center
09:49AM 35.4136 -84.2350 233° Southwest 447 514 36,000  Level Atlanta Center
09:50AM 35.3381 -84.3519 232° Southwest 442 509 36,000  Level Atlanta Center
09:51AM 35.2647 -84.4686 232° Southwest 442 509 36,000  Level Atlanta Center
09:52AM 35.1914 -84.5825 232° Southwest 442 509 36,000  Level Atlanta Center
09:53AM 35.1178 -84.6989 232° Southwest 442 509 36,000  Level Atlanta Center
09:54AM 35.0461 -84.8125 232° Southwest 442 509 36,000  Level Atlanta Center
09:55AM 34.9722 -84.9286 232° Southwest 442 509 36,000  Level Atlanta Center
09:56AM 34.8964 -85.0442 231° Southwest 442 509 36,000  Level Atlanta Center
09:57AM 34.8222 -85.1597 232° Southwest 442 509 36,000  Level Atlanta Center
09:58AM 34.7461 -85.2775 232° Southwest 442 509 36,000  Level Atlanta Center
09:59AM 34.6739 -85.3900 232° Southwest 442 509 36,000  Level Atlanta Center
10:00AM 34.5975 -85.5075 232° Southwest 442 509 36,000  Level Atlanta Center
10:01AM 34.5250 -85.6197 232° Southwest 442 509 36,000  Level Atlanta Center
10:02AM 34.4464 -85.7364 231° Southwest 442 509 36,000  Level Atlanta Center
10:03AM 34.3736 -85.8483 232° Southwest 442 509 36,000  Level Atlanta Center
10:04AM 34.2925 -85.9672 230° Southwest 442 509 36,000  Level Atlanta Center
10:05AM 34.2178 -86.0811 232° Southwest 442 509 36,000  Level Atlanta Center
10:06AM 34.1428 -86.1947 231° Southwest 442 509 36,000  Level Atlanta Center
10:07AM 34.0764 -86.2933 231° Southwest 442 509 36,000  Level Atlanta Center
10:08AM 33.9989 -86.4117 232° Southwest 442 509 36,000  Level Atlanta Center
10:09AM 33.9217 -86.5247 231° Southwest 442 509 36,000  Level Atlanta Center
10:10AM 33.8442 -86.6400 231° Southwest 442 509 36,000  Level Atlanta Center
10:11AM 33.7686 -86.7528 231° Southwest 442 509 36,000  Level Atlanta Center
10:12AM 33.6931 -86.8650 231° Southwest 442 509 36,000  Level Atlanta Center
10:13AM 33.6172 -86.9750 230° Southwest 442 509 36,000  Level Atlanta Center
10:14AM 33.5436 -87.0869 232° Southwest 442 509 36,000  Level Atlanta Center
10:15AM 33.4678 -87.1989 231° Southwest 442 509 36,000  Level Atlanta Center
10:16AM 33.3961 -87.3081 232° Southwest 436 502 36,000  Level Atlanta Center
10:18AM 33.2492 -87.5281 231° Southwest 429 494 36,000  Level Memphis Center
10:19AM 33.1764 -87.6344 231° Southwest 429 494 36,000  Level Memphis Center
10:20AM 33.1017 -87.7458 231° Southwest 429 494 36,000  Level Memphis Center
10:21AM 33.0286 -87.8572 232° Southwest 429 494 36,000  Level Memphis Center
10:22AM 32.9600 -87.9656 233° Southwest 424 488 36,000  Level Memphis Center
10:23AM 32.8867 -88.0714 230° Southwest 424 488 36,000  Level Memphis Center
10:24AM 32.8114 -88.1772 230° Southwest 424 488 36,000  Level Memphis Center
10:25AM 32.7403 -88.2850 232° Southwest 424 488 36,000  Level Memphis Center
10:26AM 32.6667 -88.3906 230° Southwest 430 495 36,000  Level Memphis Center
10:27AM 32.5892 -88.5031 231° Southwest 430 495 36,000  Level Memphis Center
10:28AM 32.5136 -88.6106 230° Southwest 430 495 36,000  Level Memphis Center
10:29AM 32.4397 -88.7203 231° Southwest 430 495 36,000  Level Memphis Center
10:30AM 32.3556 -88.8278 227° Southwest 430 495 36,000  Level Memphis Center
10:31AM 32.2628 -88.9178 219° Southwest 435 501 36,000  Level Memphis Center
10:32AM 32.1678 -89.0075 219° Southwest 441 507 36,000 -360 Level Memphis Center
10:34AM 31.9717 -89.1986 220° Southwest 443 510 35,000 -1,080 Descending Houston Center
10:35AM 31.8767 -89.2903 219° Southwest 444 511 32,700 -2,280 Descending Houston Center
10:36AM 31.7797 -89.3833 219° Southwest 452 520 30,300 -2,280 Descending Houston Center
10:37AM 31.6833 -89.4758 219° Southwest 451 519 28,000 -1,200 Descending Houston Center
10:38AM 31.5681 -89.5867 219° Southwest 438 504 27,900 -1,020 Descending Houston Center
10:39AM 31.4736 -89.6758 219° Southwest 438 504 26,000 -1,860 Descending Houston Center
10:40AM 31.3842 -89.7608 219° Southwest 421 484 24,100 -1,740 Descending Houston Center
10:41AM 31.2961 -89.8433 219° Southwest 410 472 22,400 -1,680 Descending Houston Center
10:42AM 31.2117 -89.9239 219° Southwest 397 457 20,700 -1,560 Descending Houston Center
10:43AM 31.1281 -90.0028 219° Southwest 392 451 19,200 -1,620 Descending Houston Center
10:44AM 31.0303 -90.0956 219° Southwest 381 438 17,400 -1,680 Descending Houston Center
10:45AM 30.9511 -90.1692 219° Southwest 371 427 15,800 -1,560 Descending Houston Center
10:46AM 30.8625 -90.2231 208° Southwest 373 429 14,200 -1,620 Descending Houston Center
10:46AM 30.8256 -90.2267 185° South 372 428 13,700 -1,560 Descending Houston Center
10:47AM 30.7611 -90.2203 175° South 371 427 12,600 -1,680 Descending Houston Center
10:48AM 30.7000 -90.2125 174° South 366 421 11,700 -1,560 Descending Houston Center
10:48AM 30.6650 -90.1975 160° South 363 418 11,000 -1,500 Descending Houston Center
10:49AM 30.6169 -90.1628 148° Southeast 337 388 10,200 -1,860 Descending Houston Center
10:49AM 30.5722 -90.1319 149° Southeast 326 375 9,100 -1,980 Descending Houston Center
10:50AM 30.5422 -90.1128 151° Southeast 298 343 8,200 -2,280 Descending Houston Center
10:50AM 30.4967 -90.0997 166° South 313 360 6,800 -2,100 Descending Houston Center
10:51AM 30.4644 -90.1039 186° South 285 328 6,100 -1,860 Descending Houston Center
10:51AM 30.4206 -90.1147 192° South 288 331 4,900 -1,800 Descending Houston Center
10:52AM 30.3900 -90.1239 195° South 271 312 4,300 -900 Descending Houston Center
10:52AM 30.3497 -90.1375 196° South 276 318 4,000 -300 Descending Houston Center
10:53AM 30.3133 -90.1489 195° South 264 304 4,000  Level Houston Center
10:53AM 30.2781 -90.1600 195° South 270 311 4,000  Level Houston Center
10:54AM 30.2411 -90.1711 195° South 268 308 4,000 -300 Level Houston Center
10:54AM 30.1925 -90.1867 195° South 268 308 3,700 -420 Descending Houston Center